Time;durP1;ratioP1;P1;durP2;ratioP2;P2;SDS_P1;SDS_P2;PMS_P1;PMS_P2;Temp;Humidity;BMP_temperature;BMP_pressure;BME280_temperature;BME280_humidity;BME280_pressure;Samples;Min_cycle;Max_cycle;Signal;HPM_P1;HPM_P2
2022/05/30 00:01:42;;;;;;;25.73;17.00;;;7.80;99.90;;;7.89;100.00;99128.69;5062112;27;118891;-75
2022/05/30 00:04:11;;;;;;;25.08;17.33;;;7.90;99.90;;;7.91;100.00;99129.16;5062442;27;116186;-72
2022/05/30 00:06:39;;;;;;;26.88;16.88;;;7.90;99.90;;;7.91;100.00;99142.69;5061550;27;130072;-72
2022/05/30 00:09:08;;;;;;;29.20;16.80;;;7.70;99.90;;;7.89;100.00;99134.06;5060255;27;130091;-74
2022/05/30 00:11:38;;;;;;;21.80;15.15;;;7.60;99.90;;;7.89;100.00;99144.88;5046990;27;117680;-77
2022/05/30 00:14:07;;;;;;;26.58;17.20;;;7.50;99.90;;;7.85;100.00;99138.50;5046895;27;114912;-76
2022/05/30 00:16:36;;;;;;;27.75;17.27;;;7.70;99.90;;;7.85;100.00;99143.91;5061287;27;130530;-76
2022/05/30 00:19:04;;;;;;;27.88;18.52;;;7.60;99.90;;;7.82;100.00;99155.31;5061399;27;130409;-76
2022/05/30 00:21:33;;;;;;;30.30;18.23;;;7.70;99.90;;;7.77;100.00;99157.31;5061863;27;119296;-74
2022/05/30 00:24:01;;;;;;;27.17;17.83;;;7.70;99.90;;;7.71;100.00;99165.53;5061643;27;115902;-73
2022/05/30 00:26:30;;;;;;;28.33;17.92;;;7.60;99.90;;;7.69;100.00;99158.81;5061432;27;129776;-76
2022/05/30 00:29:00;;;;;;;29.50;18.73;;;7.80;99.90;;;7.70;100.00;99169.31;5061548;27;129822;-75
2022/05/30 00:31:29;;;;;;;27.85;18.33;;;7.70;99.90;;;7.67;100.00;99158.31;5062616;27;119041;-74
2022/05/30 00:33:58;;;;;;;23.90;16.60;;;7.70;99.90;;;7.67;100.00;99158.31;5061738;27;115974;-75
2022/05/30 00:36:26;;;;;;;29.77;19.17;;;7.70;99.90;;;7.63;100.00;99162.72;5062718;27;128967;-75
2022/05/30 00:38:55;;;;;;;26.15;16.73;;;7.70;99.90;;;7.62;100.00;99163.81;5080100;27;129305;-72
2022/05/30 00:41:26;;;;;;;23.77;15.65;;;7.60;99.90;;;7.63;100.00;99163.50;5061309;27;118968;-74
2022/05/30 00:43:54;;;;;;;28.35;18.83;;;7.70;99.90;;;7.66;100.00;99175.63;5062261;27;116206;-71
2022/05/30 00:46:24;;;;;;;25.95;17.80;;;7.70;99.90;;;7.73;100.00;99174.13;5062442;27;130406;-77
2022/05/30 00:48:58;;;;;;;28.30;18.75;;;7.80;99.90;;;7.84;100.00;99168.53;5059407;27;129267;-77
2022/05/30 00:51:32;;;;;;;30.17;19.25;;;8.10;99.90;;;7.88;100.00;99162.22;5063403;27;118059;-75
2022/05/30 00:54:05;;;;;;;27.15;19.02;;;8.00;99.90;;;7.92;100.00;99152.38;5046423;27;115373;-73
2022/05/30 00:56:37;;;;;;;30.58;19.42;;;8.10;99.90;;;7.94;100.00;99156.69;5059603;27;130051;-74
2022/05/30 00:59:07;;;;;;;27.67;18.67;;;8.00;99.90;;;7.96;100.00;99159.91;5045313;27;129531;-75
2022/05/30 01:01:37;;;;;;;28.90;20.35;;;8.00;99.90;;;7.98;100.00;99152.28;5059858;27;119170;-73
2022/05/30 01:06:57;;;;;;;33.03;19.98;;;8.00;99.90;;;7.95;100.00;99159.09;5060563;27;130247;-73
2022/05/30 01:09:34;;;;;;;33.35;22.05;;;8.10;99.90;;;7.94;100.00;99149.38;5062381;27;129727;-72
2022/05/30 01:12:06;;;;;;;29.95;20.73;;;8.10;99.90;;;7.97;100.00;99156.09;5060901;27;119083;-72
2022/05/30 01:14:38;;;;;;;30.10;21.25;;;8.00;99.90;;;7.96;100.00;99151.78;5061154;27;116533;-73
2022/05/30 01:17:12;;;;;;;28.15;20.83;;;7.90;99.90;;;7.95;100.00;99147.47;5076381;27;130074;-74
2022/05/30 01:19:55;;;;;;;26.95;19.23;;;7.90;99.90;;;7.90;100.00;99146.50;5061077;27;129637;-73
2022/05/30 01:23:00;;;;;;;28.05;19.00;;;7.80;99.90;;;7.90;100.00;99146.50;5076882;27;118885;-74
2022/05/30 01:26:12;;;;;;;29.20;20.02;;;7.80;99.90;;;7.86;100.00;99147.41;5040754;27;115806;-74
2022/05/30 01:28:58;;;;;;;30.08;19.73;;;7.80;99.90;;;7.82;100.00;99160.72;5044725;27;128864;-75
2022/05/30 01:31:27;;;;;;;32.58;20.52;;;7.80;99.90;;;7.89;100.00;99144.88;5045316;27;129079;-75
2022/05/30 01:33:56;;;;;;;30.05;19.20;;;7.90;99.90;;;7.94;100.00;99145.91;5059573;27;119299;-76
2022/05/30 01:36:25;;;;;;;29.73;19.33;;;7.90;99.90;;;7.95;100.00;99144.78;5062274;27;115271;-77
2022/05/30 01:38:55;;;;;;;30.13;19.30;;;7.90;99.90;;;7.98;100.00;99146.88;5045102;27;129844;-75
2022/05/30 01:41:45;;;;;;;28.80;18.45;;;7.90;99.90;;;8.06;100.00;99138.06;5062135;27;129255;-75
2022/05/30 01:44:16;;;;;;;27.73;18.23;;;7.90;99.90;;;8.03;100.00;99141.38;5045692;27;118378;-72
2022/05/30 01:46:44;;;;;;;26.23;18.08;;;7.90;99.90;;;8.10;100.00;99139.03;5045261;27;115444;-75
2022/05/30 01:49:13;;;;;;;24.83;17.10;;;7.90;99.90;;;8.12;100.00;99136.03;5060396;27;129814;-82
2022/05/30 01:51:43;;;;;;;21.98;15.63;;;8.00;99.90;;;8.14;100.00;99137.34;5062256;27;129906;-75
2022/05/30 01:54:12;;;;;;;27.10;17.08;;;8.00;99.90;;;8.14;100.00;99134.66;5059355;27;119048;-76
2022/05/30 01:56:49;;;;;;;28.23;18.95;;;8.00;99.90;;;8.15;100.00;99136.25;5060535;27;115645;-76
2022/05/30 01:59:21;;;;;;;27.83;16.70;;;8.00;99.90;;;8.23;100.00;99127.41;5044835;27;130021;-75
2022/05/30 02:02:12;;;;;;;25.35;16.52;;;8.10;99.90;;;8.36;100.00;99130.38;5063183;27;129850;-75
2022/05/30 02:04:41;;;;;;;24.00;16.90;;;8.20;99.90;;;8.42;100.00;99123.75;5045238;27;118356;-76
2022/05/30 02:07:09;;;;;;;25.98;16.45;;;8.20;99.90;;;8.51;100.00;99127.34;5045342;27;114358;-76
2022/05/30 02:09:38;;;;;;;24.60;15.80;;;8.30;99.90;;;8.59;100.00;99123.91;5062181;27;129941;-75
2022/05/30 02:12:08;;;;;;;22.67;15.27;;;8.30;99.90;;;8.64;100.00;99123.78;5058291;27;129507;-77
2022/05/30 02:14:49;;;;;;;24.17;16.83;;;8.30;99.90;;;8.71;100.00;99125.25;5062345;27;118721;-76
2022/05/30 02:17:17;;;;;;;21.77;15.23;;;8.30;99.90;;;8.79;100.00;99127.25;5062290;27;114806;-76
2022/05/30 02:19:46;;;;;;;24.70;16.13;;;8.40;99.90;;;8.87;100.00;99123.00;5078678;27;130683;-76
2022/05/30 02:22:19;;;;;;;22.98;15.00;;;8.40;99.90;;;8.89;100.00;99118.84;5058408;27;129465;-78
2022/05/30 02:24:48;;;;;;;26.05;15.73;;;8.50;99.90;;;8.92;100.00;99122.84;5062157;27;118487;-76
2022/05/30 02:27:19;;;;;;;22.33;15.68;;;8.50;99.90;;;9.00;100.00;99125.59;5062253;27;114441;-75
2022/05/30 02:29:49;;;;;;;28.17;15.60;;;8.50;99.90;;;9.10;100.00;99118.31;5075438;27;130112;-75
2022/05/30 02:32:22;;;;;;;26.48;16.98;;;8.60;99.90;;;9.12;100.00;99113.41;5075665;27;130120;-77
2022/05/30 02:37:38;;;;;;;23.63;16.90;;;8.60;99.90;;;8.99;100.00;99113.19;5044652;27;114804;-75
2022/05/30 02:40:25;;;;;;;23.67;15.68;;;8.60;99.90;;;9.07;100.00;99102.69;5060873;27;130142;-74
2022/05/30 02:43:05;;;;;;;25.05;17.38;;;8.60;99.90;;;9.09;100.00;99108.63;5061484;27;129022;-74
2022/05/30 02:45:41;;;;;;;24.63;16.83;;;8.70;99.90;;;9.08;100.00;99113.22;5044879;27;118853;-75
2022/05/30 02:48:11;;;;;;;23.83;15.93;;;8.70;99.90;;;9.08;100.00;99101.59;5077585;27;115918;-74
2022/05/30 02:50:40;;;;;;;27.95;16.95;;;8.60;99.90;;;9.07;100.00;99100.00;5063001;27;130814;-77
2022/05/30 02:53:08;;;;;;;25.52;16.92;;;8.70;99.90;;;9.03;100.00;99099.81;5065141;27;129306;-75
2022/05/30 02:55:59;;;;;;;23.00;16.45;;;8.70;99.90;;;9.02;100.00;99089.31;5066702;27;119237;-76
2022/05/30 02:58:29;;;;;;;23.80;16.88;;;8.70;99.90;;;9.05;100.00;99085.97;5081888;27;115142;-75
2022/05/30 03:00:59;;;;;;;24.35;17.38;;;8.70;99.90;;;9.14;100.00;99089.53;5078648;27;130428;-75
2022/05/30 03:03:28;;;;;;;21.70;16.08;;;8.80;99.90;;;9.20;100.00;99087.50;5061208;27;129945;-76
2022/05/30 03:05:57;;;;;;;23.55;16.95;;;8.90;99.90;;;9.31;100.00;99088.81;5078668;27;118825;-76
2022/05/30 03:08:25;;;;;;;26.60;16.88;;;8.90;99.90;;;9.46;100.00;99091.09;5061890;27;116073;-74
2022/05/30 03:11:20;;;;;;;26.85;17.92;;;9.00;99.90;;;9.62;100.00;99088.75;5060634;27;129806;-74
2022/05/30 03:13:48;;;;;;;25.30;17.70;;;9.10;99.90;;;9.74;100.00;99090.03;5061364;27;129615;-74
2022/05/30 03:16:19;;;;;;;24.85;17.55;;;9.20;99.90;;;9.85;100.00;99091.34;5064632;27;119277;-76
2022/05/30 03:18:48;;;;;;;22.52;16.15;;;9.20;99.90;;;9.94;100.00;99094.88;5078841;27;115774;-76
2022/05/30 03:21:17;;;;;;;19.45;15.05;;;9.30;99.90;;;10.13;100.00;99096.47;5062447;27;130512;-74
2022/05/30 03:23:45;;;;;;;24.13;15.80;;;9.40;99.90;;;10.33;100.00;99105.91;5061163;27;129887;-75
2022/05/30 03:26:19;;;;;;;21.30;14.75;;;9.60;99.90;;;10.53;100.00;99104.47;5061975;27;119619;-75
2022/05/30 03:28:48;;;;;;;20.02;14.65;;;9.70;99.90;;;10.69;100.00;99097.44;5047794;27;114876;-75
2022/05/30 03:31:17;;;;;;;20.00;14.85;;;9.80;99.90;;;10.81;100.00;99109.56;5060682;27;130004;-76
2022/05/30 03:33:46;;;;;;;18.25;14.00;;;9.90;99.90;;;10.97;100.00;99097.84;5047070;27;128503;-79
2022/05/30 03:36:20;;;;;;;17.52;13.20;;;10.10;99.90;;;11.20;100.00;99104.97;5078432;27;118527;-77
2022/05/30 03:39:08;;;;;;;17.15;13.00;;;10.30;99.90;;;11.41;100.00;99105.06;5062688;27;115604;-77
2022/05/30 03:41:54;;;;;;;16.77;12.57;;;10.50;99.90;;;11.71;100.00;99099.63;5061932;27;130289;-76
2022/05/30 03:44:43;;;;;;;16.35;11.23;;;10.70;99.90;;;11.99;99.57;99106.19;5064262;27;128999;-75
2022/05/30 03:47:13;;;;;;;14.80;10.30;;;10.90;99.90;;;12.29;100.00;99116.22;5065162;27;118381;-75
2022/05/30 03:49:42;;;;;;;14.77;10.82;;;11.10;99.90;;;12.49;98.68;99109.19;5065183;27;115349;-75
2022/05/30 03:52:11;;;;;;;14.05;9.75;;;11.20;99.90;;;12.61;96.34;99105.72;5062074;27;130166;-72
2022/05/30 03:54:39;;;;;;;13.38;8.95;;;11.20;99.90;;;12.57;96.26;99117.28;5047052;27;129136;-73
2022/05/30 03:57:07;;;;;;;10.65;8.15;;;11.10;99.90;;;12.54;95.06;99120.69;5061346;27;119246;-72
2022/05/30 03:59:36;;;;;;;14.27;9.07;;;11.00;99.90;;;12.49;93.92;99109.97;5080981;27;114620;-74
2022/05/30 04:02:05;;;;;;;12.48;8.60;;;11.00;99.90;;;12.51;93.73;99109.63;5060380;27;129831;-74
2022/05/30 04:04:35;;;;;;;14.43;9.23;;;11.00;99.90;;;12.50;93.15;99110.78;5047029;27;128240;-75
2022/05/30 04:07:05;;;;;;;13.68;9.18;;;10.90;99.90;;;12.54;92.44;99107.06;5060912;27;119584;-74
2022/05/30 04:09:45;;;;;;;12.18;8.35;;;11.00;99.90;;;12.54;91.78;99112.50;5078803;27;116501;-75
2022/05/30 04:12:34;;;;;;;14.05;8.70;;;11.00;52.80;;;12.61;90.74;99116.63;5063586;27;129093;-75
2022/05/30 04:15:23;;;;;;;14.80;9.50;;;11.00;1.00;;;12.65;90.85;99112.06;5065990;27;128448;-74
2022/05/30 04:17:58;;;;;;;11.70;7.85;;;11.10;1.00;;;12.66;90.09;99108.25;5067900;27;118267;-78
2022/05/30 04:20:29;;;;;;;11.23;7.50;;;11.20;1.00;;;12.53;88.92;99110.91;5065069;27;115218;-75
2022/05/30 04:23:00;;;;;;;15.05;6.82;;;11.20;1.00;;;12.48;89.38;99105.69;5049701;27;129491;-75
2022/05/30 04:25:47;;;;;;;8.25;6.25;;;11.20;1.00;;;12.39;89.62;99110.41;5084087;27;130650;-74
2022/05/30 04:28:16;;;;;;;9.70;7.00;;;11.10;1.00;;;12.40;89.82;99106.53;5050379;27;118163;-76
2022/05/30 04:30:53;;;;;;;12.65;7.80;;;11.20;1.00;;;12.54;89.25;99106.25;5047901;27;114123;-79
2022/05/30 04:33:22;;;;;;;10.00;7.38;;;11.30;1.00;;;12.65;88.91;99103.91;5076933;27;130051;-74
2022/05/30 04:35:52;;;;;;;13.63;7.60;;;11.40;1.00;;;12.84;87.59;99109.66;5043679;27;129825;-74
2022/05/30 04:38:23;;;;;;;8.75;6.35;;;11.50;1.00;;;12.91;86.68;99109.09;5063650;27;118439;-74
2022/05/30 04:41:12;;;;;;;9.95;6.82;;;11.60;1.00;;;13.07;85.78;99109.25;5056126;27;115632;-75
2022/05/30 04:44:10;;;;;;;10.77;6.15;;;11.70;1.00;;;13.17;85.62;99106.09;4979393;27;129050;-75
2022/05/30 04:46:59;;;;;;;9.32;6.00;;;11.90;1.00;;;13.35;83.74;99105.91;5061425;27;129419;-74
2022/05/30 04:49:29;;;;;;;9.50;5.93;;;12.00;1.00;;;13.62;83.50;99109.91;5063962;27;118726;-75
2022/05/30 04:51:59;;;;;;;8.65;5.57;;;12.20;1.00;;;13.86;81.75;99114.53;5060496;27;115854;-76
2022/05/30 04:54:28;;;;;;;8.10;5.28;;;12.30;1.00;;;13.97;81.16;99115.66;5063105;27;130043;-77
2022/05/30 04:57:07;;;;;;;7.53;5.47;;;12.40;1.00;;;14.17;79.09;99113.91;5063357;27;128438;-75
2022/05/30 04:59:43;;;;;;;7.68;5.03;;;12.50;1.00;;;14.39;78.93;99112.59;5045951;27;118403;-75
2022/05/30 05:02:13;;;;;;;12.73;5.78;;;12.60;1.00;;;14.54;78.35;99121.22;5060168;27;116182;-75
2022/05/30 05:04:42;;;;;;;8.65;5.57;;;12.70;1.00;;;14.49;76.16;99114.06;5063078;27;130147;-73
2022/05/30 05:07:12;;;;;;;7.57;5.53;;;12.60;1.00;;;14.55;75.91;99111.88;5059777;27;130135;-76
2022/05/30 05:09:56;;;;;;;10.90;6.65;;;12.70;1.00;;;14.75;76.01;99110.09;5058608;27;119194;-75
2022/05/30 05:12:30;;;;;;;10.77;6.18;;;12.90;1.00;;;14.82;75.91;99112.22;5061429;27;114914;-74
2022/05/30 05:15:17;;;;;;;8.15;5.50;;;13.10;1.00;;;14.46;74.41;99108.50;5060827;27;130633;-73
2022/05/30 05:17:58;;;;;;;11.23;5.45;;;12.90;1.00;;;14.31;75.23;99118.22;5061439;27;128767;-76
2022/05/30 05:20:29;;;;;;;11.48;6.47;;;12.80;1.00;;;14.50;74.93;99112.91;5064555;27;118840;-74
2022/05/30 05:22:59;;;;;;;12.45;6.65;;;12.90;1.00;;;14.63;74.88;99121.91;5076895;27;115112;-75
2022/05/30 05:26:02;;;;;;;12.50;6.35;;;13.00;1.00;;;14.41;74.98;99116.94;5048975;27;130039;-73
2022/05/30 05:28:44;;;;;;;11.93;6.68;;;12.90;1.00;;;14.44;74.64;99111.56;5062268;27;128334;-77
2022/05/30 05:31:21;;;;;;;9.15;5.65;;;12.90;1.00;;;14.57;75.24;99117.78;5059756;27;118783;-74
2022/05/30 05:33:49;;;;;;;10.85;7.20;;;13.00;1.00;;;14.65;74.14;99122.34;5077409;27;116186;-76
2022/05/30 05:36:21;;;;;;;8.77;5.35;;;13.10;1.00;;;14.39;73.58;99125.47;5062568;27;130469;-73
2022/05/30 05:38:51;;;;;;;14.05;6.30;;;12.90;1.00;;;14.46;74.81;99113.94;5060193;27;130040;-76
2022/05/30 05:41:41;;;;;;;9.40;6.25;;;13.00;1.00;;;14.30;74.45;99122.09;5063298;27;118482;-76
2022/05/30 05:44:13;;;;;;;9.35;5.05;;;12.80;1.00;;;14.36;74.44;99118.75;5063166;27;114530;-72
2022/05/30 05:46:42;;;;;;;10.23;5.30;;;12.90;1.00;;;14.32;73.87;99128.78;5045372;27;129238;-73
2022/05/30 05:49:10;;;;;;;12.23;6.20;;;12.80;1.00;;;14.17;73.56;99121.31;5062635;27;129264;-78
2022/05/30 05:51:41;;;;;;;8.70;5.80;;;12.80;1.00;;;14.26;73.57;99132.91;5060946;27;119098;-75
2022/05/30 05:54:14;;;;;;;9.30;6.07;;;12.80;1.00;;;14.35;72.82;99133.56;5062992;27;115644;-75
2022/05/30 05:56:42;;;;;;;9.80;5.30;;;12.90;1.00;;;14.30;72.10;99139.25;5045704;27;129865;-78
2022/05/30 05:59:21;;;;;;;10.35;5.22;;;12.90;1.00;;;14.29;71.88;99136.84;5062285;27;129967;-74
2022/05/30 06:01:50;;;;;;;8.65;4.72;;;12.90;1.00;;;14.32;72.33;99141.63;5059696;27;118941;-76
2022/05/30 06:04:19;;;;;;;8.25;4.57;;;12.90;1.00;;;14.32;72.63;99136.97;5046129;27;114694;-74
2022/05/30 06:07:08;;;;;;;6.75;3.85;;;12.80;1.00;;;14.18;73.52;99147.47;5020748;27;130074;-77
2022/05/30 06:09:57;;;;;;;7.93;4.03;;;12.70;1.00;;;14.24;75.31;99162.44;5060590;27;129968;-78
2022/05/30 06:12:37;;;;;;;7.72;4.60;;;12.80;1.00;;;14.17;76.36;99143.16;5062700;27;118885;-75
2022/05/30 06:15:07;;;;;;;7.90;4.30;;;12.60;1.00;;;14.06;76.83;99147.50;5059585;27;115245;-76
2022/05/30 06:17:46;;;;;;;8.88;4.50;;;12.40;1.00;;;13.96;77.55;99152.28;5061792;27;129126;-76
2022/05/30 06:20:18;;;;;;;9.07;4.25;;;12.30;1.00;;;13.99;78.42;99151.59;5058915;27;129354;-76
2022/05/30 06:22:47;;;;;;;8.15;4.20;;;12.50;1.00;;;13.92;78.85;99145.91;5063248;27;119749;-76
2022/05/30 06:25:38;;;;;;;6.90;4.60;;;12.30;1.00;;;13.77;79.75;99160.22;5064353;27;115770;-75
2022/05/30 06:28:24;;;;;;;7.47;4.55;;;12.20;1.00;;;13.72;81.28;99153.06;5063481;27;130000;-75
2022/05/30 06:31:09;;;;;;;10.07;4.55;;;12.20;1.00;;;13.63;82.07;99142.28;5063884;27;129752;-74
2022/05/30 06:33:37;;;;;;;9.65;4.90;;;12.20;1.00;;;13.76;81.56;99143.09;5062609;27;118838;-77
2022/05/30 06:36:12;;;;;;;8.55;4.80;;;12.10;1.00;;;13.80;82.63;99143.19;5063186;27;114865;-76
2022/05/30 06:38:41;;;;;;;8.13;4.20;;;12.30;1.00;;;13.85;82.83;99140.22;5065427;27;129458;-77
2022/05/30 06:41:24;;;;;;;11.48;4.70;;;12.30;1.00;;;13.89;82.62;99132.94;5065561;27;130133;-74
2022/05/30 06:43:55;;;;;;;8.27;4.93;;;12.30;1.00;;;13.85;82.76;99129.31;5062287;27;118850;-76
2022/05/30 06:46:42;;;;;;;7.57;4.88;;;12.30;1.00;;;13.97;82.80;99132.03;5066021;27;114923;-75
2022/05/30 06:49:28;;;;;;;;;;;12.30;1.00;;;14.01;83.63;99132.16;5065384;27;129558;-76
2022/05/30 06:52:02;;;;;;;6.40;4.78;;;12.40;1.00;;;14.12;83.36;99121.56;5065488;27;129557;-75
2022/05/30 06:54:31;;;;;;;6.97;5.00;;;12.50;1.00;;;14.17;83.72;99122.09;5062357;27;119051;-73
2022/05/30 06:59:47;;;;;;;7.60;4.90;;;12.40;1.00;;;13.95;84.39;99126.13;5048090;27;129491;-73
2022/05/30 07:02:17;;;;;;;6.53;4.20;;;12.30;1.00;;;13.99;85.24;99118.03;5065293;27;129262;-75
2022/05/30 07:05:04;;;;;;;6.10;4.10;;;12.40;1.00;;;13.99;84.36;99107.94;5063406;27;120071;-75
2022/05/30 07:08:14;;;;;;;7.95;5.45;;;12.40;1.00;;;14.10;84.93;99097.34;5002835;28;115239;-73
2022/05/30 07:10:56;;;;;;;11.90;5.53;;;12.40;1.00;;;14.23;84.92;99092.66;4985347;28;129856;-76
2022/05/30 07:13:29;;;;;;;9.13;6.45;;;12.60;1.00;;;14.32;84.68;99082.38;5015538;27;130382;-76
2022/05/30 07:15:58;;;;;;;10.40;8.45;;;12.70;1.00;;;14.02;85.04;99082.72;5061889;27;118927;-75
2022/05/30 07:18:33;;;;;;;16.67;9.90;;;12.60;1.00;;;13.90;86.14;99077.28;5065275;27;114975;-75
2022/05/30 07:21:07;;;;;;;13.75;8.93;;;12.60;1.00;;;13.96;86.23;99081.34;5082047;27;129435;-74
2022/05/30 07:23:39;;;;;;;9.38;6.28;;;12.70;1.00;;;13.96;86.14;99075.09;5062987;27;130337;-75
2022/05/30 07:26:28;;;;;;;7.82;5.20;;;12.70;1.00;;;14.14;85.11;99070.16;5066293;27;119273;-75
2022/05/30 07:29:16;;;;;;;9.25;5.35;;;12.90;1.00;;;14.32;83.72;99067.94;5063657;27;115219;-75
2022/05/30 07:32:08;;;;;;;6.85;4.82;;;12.90;1.00;;;14.66;83.69;99065.78;5035754;27;130672;-77
2022/05/30 07:34:55;;;;;;;9.27;4.47;;;13.20;1.00;;;14.93;82.27;99064.16;5062647;27;129329;-77
2022/05/30 07:37:33;;;;;;;6.50;4.10;;;13.30;1.00;;;15.13;80.27;99054.13;5066322;27;117636;-77
2022/05/30 07:40:33;;;;;;;6.18;4.35;;;13.30;1.00;;;14.96;80.34;99060.72;5022204;27;116148;-76
2022/05/30 07:43:18;;;;;;;8.55;3.90;;;13.40;1.00;;;14.96;80.19;99051.72;5063599;27;130073;-77
2022/05/30 07:45:48;;;;;;;7.18;4.40;;;13.40;1.00;;;14.72;80.33;99046.06;5067890;27;132047;-75
2022/05/30 07:48:24;;;;;;;6.22;3.90;;;13.20;1.00;;;14.67;81.15;99038.13;5066824;27;118193;-75
2022/05/30 07:51:22;;;;;;;9.13;4.45;;;13.10;1.00;;;14.91;80.65;99044.56;5043946;27;113983;-77
2022/05/30 07:54:00;;;;;;;5.72;3.92;;;13.40;1.00;;;14.63;80.30;99026.31;5048380;27;129587;-76
2022/05/30 07:56:34;;;;;;;7.88;4.00;;;13.20;1.00;;;14.59;81.15;99025.38;5062921;27;130001;-73
2022/05/30 07:59:04;;;;;;;5.00;3.47;;;13.20;1.00;;;14.86;79.92;99020.25;5064003;27;118604;-76
2022/05/30 08:01:34;;;;;;;5.80;4.07;;;13.30;1.00;;;14.90;79.11;99015.69;5062030;27;116463;-76
2022/05/30 08:04:03;;;;;;;4.93;3.17;;;13.40;1.00;;;14.93;78.56;99012.25;5061223;27;129960;-76
2022/05/30 08:06:34;;;;;;;4.50;3.10;;;13.40;1.00;;;14.64;78.26;99000.59;5063085;27;130158;-78
2022/05/30 08:09:22;;;;;;;5.88;2.95;;;13.40;1.00;;;14.80;77.58;98986.16;5063548;27;119179;-78
2022/05/30 08:12:20;;;;;;;4.72;3.17;;;13.60;1.00;;;14.99;76.72;98978.06;5046370;27;114670;-75
2022/05/30 08:15:10;;;;;;;5.72;3.40;;;13.70;1.00;;;15.07;76.57;98974.34;5065282;27;130301;-75
2022/05/30 08:18:03;;;;;;;5.85;2.95;;;13.80;1.00;;;15.10;75.46;98979.09;5065695;27;129358;-75
2022/05/30 08:20:33;;;;;;;5.03;3.00;;;13.90;1.00;;;15.42;74.61;98970.81;5061505;27;118769;-75
2022/05/30 08:23:02;;;;;;;5.18;3.10;;;14.00;1.00;;;15.53;74.59;98967.53;5047735;27;113856;-78
2022/05/30 08:25:30;;;;;;;5.97;3.40;;;14.10;1.00;;;15.70;74.00;98958.91;5060964;27;129727;-76
2022/05/30 08:28:00;;;;;;;7.72;3.80;;;14.20;1.00;;;15.22;75.30;98952.78;5046392;27;128926;-78
2022/05/30 08:30:29;;;;;;;5.25;3.00;;;13.80;1.00;;;15.19;75.43;98948.84;5064019;27;117933;-75
2022/05/30 08:33:24;;;;;;;5.78;3.15;;;13.80;1.00;;;15.17;75.46;98961.28;5056918;27;115943;-75
2022/05/30 08:36:13;;;;;;;8.15;5.20;;;13.80;1.00;;;15.34;75.56;98960.88;5062251;27;129699;-76
2022/05/30 08:38:42;;;;;;;5.10;3.13;;;13.90;1.00;;;15.23;75.30;98960.63;5046900;27;128430;-74
2022/05/30 08:44:08;;;;;;;7.63;3.30;;;13.80;1.00;;;14.96;76.96;98956.91;5064365;27;115218;-76
2022/05/30 08:47:01;;;;;;;4.80;2.80;;;13.70;1.00;;;15.05;77.23;98954.78;5063957;27;130029;-75
2022/05/30 08:49:37;;;;;;;6.32;3.05;;;13.70;1.00;;;15.09;77.34;98955.63;5064061;27;129206;-77
2022/05/30 08:52:43;;;;;;;4.70;2.60;;;13.70;1.00;;;15.13;76.51;98944.00;5062428;27;118785;-75
2022/05/30 08:55:26;;;;;;;7.35;3.55;;;13.60;1.00;;;15.22;78.08;98958.25;5060105;27;115554;-74
2022/05/30 08:58:07;;;;;;;7.28;3.13;;;13.80;1.00;;;15.14;76.37;98945.59;5060201;27;130019;-75
2022/05/30 09:00:42;;;;;;;5.75;2.90;;;13.60;1.00;;;14.93;76.70;98946.69;5060515;27;129614;-78
2022/05/30 09:03:42;;;;;;;5.50;3.20;;;13.60;1.00;;;14.94;77.94;98950.97;5044365;27;119539;-76
2022/05/30 09:06:21;;;;;;;5.45;2.97;;;13.70;1.00;;;15.00;77.36;98948.78;5047231;27;113717;-78
2022/05/30 09:09:00;;;;;;;6.20;3.55;;;13.60;1.00;;;14.85;77.17;98933.97;5063382;27;129366;-74
2022/05/30 09:12:01;;;;;;;4.93;2.97;;;13.50;1.00;;;14.91;78.13;98938.03;5041441;27;128576;-76
2022/05/30 09:14:47;;;;;;;6.38;3.20;;;13.60;1.00;;;14.85;78.82;98939.44;5062429;27;118759;-73
2022/05/30 09:17:22;;;;;;;8.15;3.40;;;13.40;1.00;;;14.56;78.72;98938.72;5059828;27;120250;-78
2022/05/30 09:19:53;;;;;;;6.10;3.25;;;13.30;1.00;;;14.56;80.54;98950.41;5044774;27;129542;-74
2022/05/30 09:22:25;;;;;;;7.15;3.28;;;13.30;1.00;;;14.48;80.67;98936.97;5058475;27;130078;-74
2022/05/30 09:27:58;;;;;;;6.38;3.72;;;13.40;1.00;;;14.44;82.77;98928.66;5058799;27;122364;-75
2022/05/30 09:30:52;;;;;;;8.85;3.55;;;13.30;1.00;;;14.42;81.87;98924.72;5050462;27;130138;-76
2022/05/30 09:33:47;;;;;;;5.47;3.13;;;13.20;1.00;;;14.45;82.54;98929.47;5062086;27;129892;-75
2022/05/30 09:36:51;;;;;;;6.93;3.42;;;13.20;1.00;;;14.47;82.90;98925.22;5060909;27;119253;-75
2022/05/30 09:39:49;;;;;;;7.30;3.65;;;13.30;1.00;;;14.20;85.32;98932.34;5061355;27;119601;-72
2022/05/30 09:42:29;;;;;;;8.13;4.05;;;13.10;1.00;;;14.16;85.26;98936.91;5057653;27;129810;-77
2022/05/30 09:45:12;;;;;;;8.40;4.07;;;13.00;1.00;;;14.10;87.81;98928.19;5044317;27;129168;-76
2022/05/30 09:48:05;;;;;;;6.82;3.42;;;12.90;1.00;;;13.97;86.87;98941.06;5030242;27;119435;-74
2022/05/30 09:51:00;;;;;;;7.85;3.60;;;12.80;1.00;;;13.83;88.55;98944.19;5039186;27;118985;-77
2022/05/30 09:53:48;;;;;;;6.07;3.55;;;12.60;1.00;;;13.62;90.70;98955.28;5055342;27;130115;-75
2022/05/30 09:56:23;;;;;;;5.20;3.58;;;12.50;1.00;;;13.63;90.96;98947.91;5042509;27;130231;-74
2022/05/30 09:59:05;;;;;;;6.85;4.03;;;12.50;1.00;;;13.61;91.45;98947.47;5057255;27;119781;-76
2022/05/30 10:01:54;;;;;;;8.25;3.92;;;12.50;1.00;;;13.38;92.74;98937.06;5057417;27;120203;-71
2022/05/30 10:04:36;;;;;;;7.10;4.13;;;12.40;1.00;;;13.66;93.20;98942.56;5054046;27;129867;-75
2022/05/30 10:07:17;;;;;;;5.35;3.47;;;12.60;1.00;;;13.53;93.32;98943.72;5028052;27;128385;-73
2022/05/30 10:09:57;;;;;;;6.22;3.80;;;12.40;1.00;;;13.42;94.70;98937.19;5060203;27;119174;-75
2022/05/30 10:12:38;;;;;;;7.05;4.13;;;12.40;1.00;;;13.60;94.58;98938.50;5053341;27;120292;-71
2022/05/30 10:15:28;;;;;;;5.35;4.05;;;12.50;1.00;;;13.42;95.43;98931.72;5040076;27;130098;-74
2022/05/30 10:18:28;;;;;;;6.45;3.92;;;12.40;1.00;;;13.32;96.83;98938.41;5039775;27;129944;-74
2022/05/30 10:21:20;;;;;;;5.70;3.80;;;12.30;1.00;;;13.21;96.67;98948.97;5058939;27;122478;-75
2022/05/30 10:28:15;;;;;;;6.93;4.70;;;12.20;1.00;;;12.88;98.89;98957.28;5017584;28;131088;-73
2022/05/30 10:31:13;;;;;;;6.78;4.20;;;12.00;1.00;;;12.87;100.00;98956.50;5016518;27;129384;-75
2022/05/30 10:34:35;;;;;;;6.70;4.35;;;12.10;53.40;;;12.87;99.92;98967.38;5056201;27;119690;-76
2022/05/30 10:37:20;;;;;;;7.57;5.07;;;12.00;94.60;;;13.11;100.00;98968.50;5043682;27;119091;-74
2022/05/30 10:40:11;;;;;;;10.23;5.32;;;12.20;99.90;;;13.26;99.10;98967.00;5052983;27;130040;-76
2022/05/30 10:42:48;;;;;;;6.45;4.63;;;12.30;99.90;;;13.04;99.59;98962.81;5042803;27;129806;-74
2022/05/30 10:45:27;;;;;;;9.18;4.78;;;12.20;99.90;;;13.16;100.00;98953.88;5056824;27;119748;-74
2022/05/30 10:47:58;;;;;;;8.82;4.50;;;12.30;99.90;;;13.20;99.77;98950.13;5060376;27;120204;-71
2022/05/30 10:50:43;;;;;;;8.98;4.57;;;12.30;99.90;;;12.92;100.00;98939.91;5076568;27;129007;-73
2022/05/30 10:53:33;;;;;;;7.47;5.00;;;12.10;97.70;;;12.80;100.00;98923.56;5042668;27;129305;-74
2022/05/30 10:56:38;;;;;;;8.25;4.80;;;12.10;99.90;;;12.56;100.00;98911.53;5015219;27;119187;-73
2022/05/30 10:59:30;;;;;;;7.38;4.95;;;12.10;99.90;;;12.58;100.00;98911.22;5059041;27;119870;-72
2022/05/30 11:02:08;;;;;;;7.28;4.65;;;12.10;99.90;;;12.72;100.00;98905.44;5030584;27;129259;-75
2022/05/30 11:04:47;;;;;;;6.25;4.15;;;12.10;99.90;;;12.66;100.00;98901.34;5023343;27;129153;-73
2022/05/30 11:07:42;;;;;;;9.93;4.10;;;12.10;99.90;;;12.71;100.00;98892.94;5023159;27;119172;-75
2022/05/30 11:10:32;;;;;;;8.40;4.13;;;12.10;99.90;;;12.91;100.00;98883.84;5044160;27;119948;-73
2022/05/30 11:13:11;;;;;;;5.82;3.70;;;12.30;99.90;;;13.02;100.00;98880.69;5040273;27;130460;-73
2022/05/30 11:15:50;;;;;;;7.82;3.83;;;12.40;99.90;;;13.16;100.00;98875.66;5059983;27;129092;-70